気象予報士の航空気象 快適な日曜日

*All archives   *Admin

スポンサーサイト

上記の広告は1ヶ月以上更新のないブログに表示されています。
新しい記事を書く事で広告が消せます。
--:--  |  スポンサー広告  |  EDIT  |  Top↑

2010.04.25 (Sun)

快適な日曜日

 寒い日が続いたり、、暖かくなったり。


RJTT 250600Z 17018KT 9999 FEW030 16/00 Q1022 RMK 1CU030 A3019
RJTT 250530Z 17017KT 9999 FEW030 16/M00 Q1022 RMK 1CU030 A3020
RJTT 250500Z 17013KT 9999 FEW030 16/00 Q1022 RMK 1CU030 A3021


関東はいい天気。


羽田で気温16度。


成田はどうでしょう。


昨日、夕方の雨の後、高気圧に覆われ、放射冷却。


すると。。。


RJAA 242030Z 34003KT 2800 R34L/P1800N R34R/0300V0550U BCFG BR FEW001 03/02 Q1024 NOSIG RMK 2ST001 A3025 FG ON RWY34R AND RWY16R


霧発生。


成田は、霧が出やすい空港です。


アジア方面から朝帰りのパイロットさん、お疲れ様です。


この霧は長くは続かず、日の出とともに解消していきます。


気温が上がるからです。


午前8時ごろには回復。


RJAA 242230Z 34003KT 300V040 9999 FEW025 09/05 Q1025 NOSIG RMK 1CU025 A3029



それにしても、今日は一昨日が寒かったので、快適!


昼間の散歩も気持ちいい。


菜の花の季節は過ぎつつありますが、チューリップは満開。


今年も千葉佐倉では”桜まつり”ではなく、チューリップのイベントをやっていることでしょう。




寒暖変動、5月には解消へ
   =日本の南北に大きな温度差-気象庁
     4月23日18時7分配信 時事通信


 3月以降、気温や天気の変化しやすい状態が続いていることについて、気象庁は23日、日本の北の寒気と南の暖気がともに平年より強く、偏西風の蛇行も大きいことが原因とする分析結果を発表した。5月上旬には解消する見通しという。

 東京で17日、41年ぶりの遅さで雪が降り、その4日後に25度以上の夏日となるなど、3月からほぼ全国的に寒暖の変動が激しくなっている。

 同庁によると、今冬以降、気圧が北極圏で高く中緯度で低い傾向が続き、偏西風の蛇行によって強い寒気が北東アジア方面に南下しやすい状況という。また南側の暖気もエルニーニョ現象の影響で平年より強く、大気の不安定な状態が継続。日本付近を移動性の高気圧・低気圧が次々と通過し、天候不順をもたらした。

 今後の見通しでは、4月中は偏西風の蛇行が持続し寒気が入りやすいが、5月上旬には解消し、南の暖気の影響を受け暖かくなるとしている。 

 
ブログランキングに参加しています。
にほんブログ村 環境ブログ 天気・気象学へ
にほんブログ村
応援クリックをおねがします。


以下、アフィリエイトサイトです。




スポンサーサイト
23:00  |  時事  |  TB(0)  |  CM(0)  |  EDIT  |  Top↑

コメントを投稿する


 管理者だけに表示  (非公開コメント投稿可能)

▲PageTop

この記事のトラックバックURL

→http://weathereucalyptus.blog115.fc2.com/tb.php/464-2c4ecc97
この記事にトラックバックする(FC2ブログユーザー)

この記事へのトラックバック

▲PageTop

 | BLOGTOP | 
上記広告は1ヶ月以上更新のないブログに表示されています。新しい記事を書くことで広告を消せます。